West Woodward Airport
KWWR : now visible

Airfield :











YOU CAN JOIN US ON...

 
LOGIN :

Register | Disclaimer

   EN    FR    IT 

 









Legend :    VFR   Marginal VFR   IFR   Intensive IFR   Very Intensive IFR
Visi :
Ceiling :
>= 8 km
>= 3000ft
5 to 8 km
1000 to 3000 ft
1500m to 5 km
500 to 1000 ft
800 to 1500m
200 to 500 ft
< 800m
< 200 ft
Symbols :   Thunderstorms  Fog  Heavy snow  Heavy precipitations  Wind > 20 kt






- Airport Elevation : 2189 ft


KWWR - West Woodward

CURRENT METAR :
  • 291615Z AUTO 00000KT 10SM CLR 22/11 A3028 RMK AO2

EXPIRED METARs :
  • 291555Z AUTO 14005KT 10SM CLR 22/12 A3029 RMK AO2
  • 291535Z AUTO 07004KT 10SM CLR 22/12 A3029 RMK AO2
  • 291515Z AUTO 05003KT 10SM CLR 21/12 A3029 RMK AO2
  • 291455Z AUTO 08005KT 10SM CLR 21/13 A3029 RMK AO2
  • 291435Z AUTO 10004KT 10SM CLR 21/13 A3029 RMK AO2
  • 291415Z AUTO 07005KT 10SM CLR 20/13 A3029 RMK AO2
  • 291355Z AUTO 06003KT 10SM CLR 18/13 A3029 RMK AO2
  • 291335Z AUTO 04006KT 10SM CLR 17/12 A3029 RMK AO2

TAF KWWR
Valid from the 29 at 12:00 until the 30 at 12:00 UTC


291120Z 2912/3012 22007KT P6SM FEW250
FM291600 14006KT P6SM FEW150
FM292200 14012KT P6SM SCT150
KZKC FIR / North America



MET'MAP, your aeronautical weather chart ! - Copyright ORBIFLY December 2007 - Disclaimer

ORBIFLY MET'MAP TEAM :

Programming & Development : Alexandra Zaïnal
Concept & original design : Baudouin d'Aumeries
Assistance for programming : Marc-Olivier Méhu
Technical & hardware support : Manuel Goepfert

Contact : metmap@orbifly.com




SOURCES & CREDITS :

   NOAA       Earth
Advisory